Latest Coastal Weather Observations for St Lawrence

IDQ60701

Issued at 11:22 am EST Tuesday 30 August 2016 (issued every 10 minutes, with the page automatically refreshed every 10 minutes)

About coastal observations | Map of coastal stations | Coastal observations for QLD | Marine services | Other Formats
Station Details ID: 033210 Name: ST LAWRENCE Lat: -22.35 Lon: 149.52 Height: 9.19 m
Data from the previous 72 hours. | See also: Recent months at St Lawrence
Date/Time
EST
Temp
°C
Wind Pressure Rain since
9am
mm
Weather Cloud Vis
km
Sea
Height
m
Swell
Dir  Spd
kts
Gust
kts
hPa Trend Height
m
Period
s
Dir
30/11:00am 23.6 ENE 8 13 1025.1 - 0.0 - - - - - - -
30/10:30am 22.5 E 8 13 1025.5 - 0.0 - - - - - - -
30/10:00am 22.0 E 8 13 1025.6 - 0.0 - - - - - - -
30/09:30am 21.4 E 5 9 1025.3 - 0.0 - - - - - - -
30/09:00am 19.8 E 5 7 1025.3 - 0.0 - - - - - - -
30/08:30am 18.0 ESE 2 4 1025.0 - 0.0 - - - - - - -
30/08:00am 16.0 CALM 0 0 1024.9 - 0.0 - - - - - - -
30/07:30am 15.1 S 2 5 1024.5 - 0.0 - - - - - - -
30/07:00am 14.6 S 4 6 1024.1 - 0.0 - - - - - - -
30/06:30am 14.1 SSE 4 5 1023.8 - 0.0 - - - - - - -
30/06:00am 13.6 CALM 0 0 1023.4 - 0.0 - - - - - - -
30/05:30am 14.2 CALM 0 0 1023.2 - 0.0 - - - - - - -
30/05:00am 15.0 SSE 2 4 1022.9 - 0.0 - - - - - - -
30/04:30am 15.5 SSE 4 6 1022.5 - 0.0 - - - - - - -
30/04:00am 15.6 SSE 5 7 1022.4 - 0.0 - - - - - - -
30/03:30am 15.3 SSE 5 7 1022.4 - 0.0 - - - - - - -
30/03:00am 15.0 S 5 7 1022.4 - 0.0 - - - - - - -
30/02:30am 14.8 S 5 7 1022.6 - 0.0 - - - - - - -
30/02:00am 14.4 S 5 6 1022.7 - 0.0 - - - - - - -
30/01:30am 13.1 SW 3 4 1022.8 - 0.0 - - - - - - -
30/01:00am 13.2 SSW 1 3 1023.1 - 0.0 - - - - - - -
30/12:30am 14.1 S 3 5 1023.3 - 0.0 - - - - - - -
30/12:00am 14.5 S 3 4 1023.4 - 0.0 - - - - - - -
 
Date/Time
EST
Temp
°C
Wind Pressure Rain since
9am
mm
Weather Cloud Vis
km
Sea
Height
m
Swell
Dir  Spd
kts
Gust
kts
hPa Trend Height
m
Period
s
Dir
29/11:30pm 15.0 SSW 4 5 1023.4 - 0.0 - - - - - - -
29/11:00pm 15.1 CALM 0 0 1023.4 - 0.0 - - - - - - -
29/10:30pm 17.3 ESE 3 5 1023.3 - 0.0 - - - - - - -
29/10:00pm 17.7 SE 3 4 1023.5 - 0.0 - - - - - - -
29/09:30pm 18.6 E 5 7 1023.7 - 0.0 - - - - - - -
29/09:00pm 18.9 E 6 9 1023.5 - 0.0 - - - - - - -
29/08:30pm 19.1 E 5 9 1023.3 - 0.0 - - - - - - -
29/08:00pm 19.2 E 5 7 1023.2 - 0.0 - - - - - - -
29/07:30pm 19.4 E 5 9 1023.0 - 0.0 - - - - - - -
29/07:00pm 19.4 ENE 4 6 1022.7 - 0.0 - - - - - - -
29/06:30pm 19.4 ENE 3 4 1022.5 - 0.0 - - - - - - -
29/06:00pm 20.6 NE 5 7 1022.3 - 0.0 - - - - - - -
29/05:30pm 21.8 NNE 7 10 1022.2 - 0.0 - - - - - - -
29/05:00pm 22.8 NNE 9 12 1021.9 - 0.0 - - - - - - -
29/04:30pm 23.5 NNE 8 11 1021.7 - 0.0 - - - - - - -
29/04:00pm 23.8 NE 9 13 1021.5 - 0.0 - - - - - - -
29/03:30pm 24.0 NNE 10 15 1021.3 - 0.0 - - - - - - -
29/03:00pm 24.3 NE 8 14 1021.6 - 0.0 - - - - - - -
29/02:30pm 25.0 ENE 7 13 1021.8 - 0.0 - - - - - - -
29/02:00pm 24.8 ENE 8 15 1022.2 - 0.0 - - - - - - -
29/01:30pm 24.3 ENE 9 18 1022.5 - 0.0 - - - - - - -
29/01:00pm 24.5 E 7 12 1022.7 - 0.0 - - - - - - -
29/12:30pm 24.4 E 6 9 1023.0 - 0.0 - - - - - - -
29/12:00pm 23.7 NE 8 13 1023.4 - 0.0 - - - - - - -
29/11:30am 22.4 ESE 6 11 1023.8 - 0.0 - - - - - - -
29/11:00am 22.4 SE 6 9 1024.1 - 0.0 - - - - - - -
29/10:30am 21.5 SE 5 8 1024.5 - 0.0 - - - - - - -
29/10:00am 20.5 SSE 5 7 1024.5 - 0.0 - - - - - - -
29/09:30am 19.1 S 5 8 1024.5 - 0.0 - - - - - - -
29/09:00am 17.3 S 5 8 1024.6 - 0.0 - - - - - - -
29/08:30am 15.6 SSW 4 6 1024.5 - 0.0 - - - - - - -
29/08:00am 13.4 SSW 1 3 1024.4 - 0.0 - - - - - - -
29/07:30am 11.2 SW 3 4 1023.9 - 0.0 - - - - - - -
29/07:00am 9.9 SW 1 4 1023.6 - 0.0 - - - - - - -
29/06:30am 9.2 CALM 0 0 1023.2 - 0.0 - - - - - - -
29/06:00am 8.8 CALM 0 0 1022.7 - 0.0 - - - - - - -
29/05:30am 8.4 WSW 2 4 1022.2 - 0.0 - - - - - - -
29/05:00am 9.0 SW 3 4 1022.2 - 0.0 - - - - - - -
29/04:30am 8.8 WSW 3 4 1022.0 - 0.0 - - - - - - -
29/04:00am 8.4 SW 3 4 1022.0 - 0.0 - - - - - - -
29/03:30am 8.9 SW 3 3 1021.9 - 0.0 - - - - - - -
29/03:00am 8.6 SW 3 4 1021.9 - 0.0 - - - - - - -
29/02:30am 8.7 SSW 3 5 1021.9 - 0.0 - - - - - - -
29/02:00am 8.8 SW 3 4 1022.1 - 0.0 - - - - - - -
29/01:30am 9.1 SW 3 4 1022.2 - 0.0 - - - - - - -
29/01:00am 8.9 S 2 3 1022.3 - 0.0 - - - - - - -
29/12:30am 9.2 WSW 2 3 1022.6 - 0.0 - - - - - - -
29/12:00am 9.7 WSW 3 4 1022.8 - 0.0 - - - - - - -
 
Date/Time
EST
Temp
°C
Wind Pressure Rain since
9am
mm
Weather Cloud Vis
km
Sea
Height
m
Swell
Dir  Spd
kts
Gust
kts
hPa Trend Height
m
Period
s
Dir
28/11:30pm 11.1 SW 3 5 1022.6 - 0.0 - - - - - - -
28/11:00pm 11.0 CALM 0 0 1022.5 - 0.0 - - - - - - -
28/10:30pm 11.5 CALM 0 0 1022.5 - 0.0 - - - - - - -
28/10:00pm 11.7 CALM 0 0 1022.6 - 0.0 - - - - - - -
28/09:30pm 12.4 CALM 0 0 1022.5 - 0.0 - - - - - - -
28/09:00pm 12.9 CALM 0 0 1022.6 - 0.0 - - - - - - -
28/08:30pm 14.0 CALM 0 0 1022.5 - 0.0 - - - - - - -
28/08:00pm 15.2 CALM 0 1 1022.3 - 0.0 - - - - - - -
28/07:30pm 15.6 NE 2 4 1022.0 - 0.0 - - - - - - -
28/07:00pm 16.4 N 3 5 1021.8 - 0.0 - - - - - - -
28/06:30pm 17.3 NNE 5 7 1021.6 - 0.0 - - - - - - -
28/06:00pm 18.3 NNE 6 9 1021.2 - 0.0 - - - - - - -
28/05:30pm 19.7 NNE 8 11 1021.0 - 0.0 - - - - - - -
28/05:00pm 21.1 NNE 6 8 1020.7 - 0.0 - - - - - - -
28/04:30pm 21.3 NNE 7 9 1020.6 - 0.0 - - - - - - -
28/04:00pm 21.5 NNE 8 10 1020.5 - 0.0 - - - - - - -
28/03:30pm 22.0 NNE 7 10 1020.4 - 0.0 - - - - - - -
28/03:00pm 22.5 NNE 7 9 1020.4 - 0.0 - - - - - - -
28/02:30pm 22.0 NE 6 10 1020.8 - 0.0 - - - - - - -
28/02:00pm 22.0 NNE 6 8 1021.1 - 0.0 - - - - - - -
28/01:30pm 21.6 NE 6 9 1021.5 - 0.0 - - - - - - -
28/01:00pm 21.2 NNE 7 11 1022.0 - 0.0 - - - - - - -
28/12:30pm 21.1 NE 7 9 1022.4 - 0.0 - - - - - - -
28/12:00pm 20.6 E 5 8 1023.0 - 0.0 - - - - - - -
28/11:30am 20.6 SE 5 9 1023.3 - 0.0 - - - - - - -
28/11:00am 20.1 SE 5 8 1023.8 - 0.0 - - - - - - -
28/10:30am 19.4 SE 5 8 1024.1 - 0.0 - - - - - - -
28/10:00am 18.7 SE 5 9 1024.5 - 0.0 - - - - - - -
28/09:30am 17.2 SSE 5 7 1024.4 - 0.0 - - - - - - -
28/09:00am 15.8 S 6 9 1024.5 - 0.0 - - - - - - -
28/08:30am 14.6 S 7 10 1024.2 - 0.0 - - - - - - -
28/08:00am 13.0 S 6 9 1024.2 - 0.0 - - - - - - -
28/07:30am 11.0 SSW 5 8 1023.9 - 0.0 - - - - - - -
28/07:00am 9.4 SSW 5 7 1023.6 - 0.0 - - - - - - -
28/06:30am 9.3 S 5 7 1023.2 - 0.0 - - - - - - -
28/06:00am 9.6 S 6 7 1022.9 - 0.0 - - - - - - -
28/05:30am 5.7 SSW 4 5 1023.0 - 0.0 - - - - - - -
28/05:00am 6.2 SW 3 4 1022.8 - 0.0 - - - - - - -
28/04:30am 6.1 WSW 1 4 1022.3 - 0.0 - - - - - - -
28/04:00am 5.7 SSW 4 5 1022.0 - 0.0 - - - - - - -
28/03:30am 5.7 SW 3 4 1021.8 - 0.0 - - - - - - -
28/03:00am 6.7 CALM 0 0 1021.9 - 0.0 - - - - - - -
28/02:30am 6.7 CALM 0 0 1022.0 - 0.0 - - - - - - -
28/02:00am 8.1 SW 4 5 1022.1 - 0.0 - - - - - - -
28/01:30am 8.3 SW 4 5 1022.1 - 0.0 - - - - - - -
28/01:00am 8.2 SW 4 6 1022.4 - 0.0 - - - - - - -
28/12:30am 8.0 WSW 4 5 1022.5 - 0.0 - - - - - - -
28/12:00am 8.4 SW 3 4 1022.6 - 0.0 - - - - - - -
 
Date/Time
EST
Temp
°C
Wind Pressure Rain since
9am
mm
Weather Cloud Vis
km
Sea
Height
m
Swell
Dir  Spd
kts
Gust
kts
hPa Trend Height
m
Period
s
Dir
27/11:30pm 8.5 SW 2 4 1022.7 - 0.0 - - - - - - -
27/11:00pm 9.2 SW 3 4 1022.9 - 0.0 - - - - - - -
27/10:30pm 9.3 WSW 4 5 1022.9 - 0.0 - - - - - - -
27/10:00pm 9.6 S 4 5 1022.5 - 0.0 - - - - - - -
27/09:30pm 11.3 SSW 4 5 1022.4 - 0.0 - - - - - - -
27/09:00pm 11.9 SW 4 5 1022.4 - 0.0 - - - - - - -
27/08:30pm 11.7 WSW 4 5 1022.1 - 0.0 - - - - - - -
27/08:00pm 11.0 CALM 0 2 1021.9 - 0.0 - - - - - - -
27/07:30pm 13.0 SSE 3 4 1021.7 - 0.0 - - - - - - -
27/07:00pm 13.8 S 3 3 1021.5 - 0.0 - - - - - - -
27/06:30pm 15.1 S 3 4 1021.0 - 0.0 - - - - - - -
27/06:00pm 16.4 S 3 5 1020.4 - 0.0 - - - - - - -
27/05:30pm 19.2 SSW 5 7 1020.0 - 0.0 - - - - - - -
27/05:00pm 20.2 S 6 9 1019.7 - 0.0 - - - - - - -
27/04:30pm 20.4 SSW 8 12 1019.4 - 0.0 - - - - - - -
27/04:00pm 20.5 S 7 12 1019.2 - 0.0 - - - - - - -
27/03:30pm 20.5 S 7 10 1019.1 - 0.0 - - - - - - -
27/03:00pm 20.6 S 8 13 1019.5 - 0.0 - - - - - - -
27/02:30pm 20.4 S 9 13 1019.6 - 0.0 - - - - - - -
27/02:00pm 20.4 S 8 13 1019.8 - 0.0 - - - - - - -
27/01:30pm 19.9 S 8 13 1020.4 - 0.0 - - - - - - -
27/01:00pm 19.3 S 10 14 1021.0 - 0.0 - - - - - - -
27/12:30pm 19.0 SW 9 13 1021.3 - 0.0 - - - - - - -
27/12:00pm 18.7 S 9 16 1021.7 - 0.0 - - - - - - -
27/11:30am 18.4 S 10 17 1022.0 - 0.0 - - - - - - -

Other Formats:

Comma delimited format used in spreadsheet applications
http://www.bom.gov.au/fwo/IDQ60701/IDQ60701.95369.axf

JavaScript Object Notation format (JSON) in row-major order
http://www.bom.gov.au/fwo/IDQ60701/IDQ60701.95369.json